createdAt,value
2022-10-29T00:02:36.251Z,16.28
2022-10-29T00:05:04.739Z,16.30
2022-10-29T00:07:36.930Z,16.30
2022-10-29T00:10:07.075Z,16.30
2022-10-29T00:12:43.307Z,16.29
2022-10-29T00:15:21.895Z,16.27
2022-10-29T00:17:50.615Z,16.26
2022-10-29T00:20:21.479Z,16.29
2022-10-29T00:22:48.770Z,16.30
2022-10-29T00:25:18.580Z,16.32
2022-10-29T00:27:46.855Z,16.31
2022-10-29T00:30:19.313Z,16.32
2022-10-29T00:32:51.339Z,16.33
2022-10-29T00:35:18.586Z,16.33
2022-10-29T00:37:46.108Z,16.34
2022-10-29T00:40:17.339Z,16.34
2022-10-29T00:42:45.661Z,16.34
2022-10-29T00:45:23.535Z,16.33
2022-10-29T00:47:53.239Z,16.33
2022-10-29T00:50:24.296Z,16.36
2022-10-29T00:52:53.030Z,16.35
2022-10-29T00:55:21.506Z,16.33
2022-10-29T00:57:51.080Z,16.31
2022-10-29T01:00:20.907Z,16.27
2022-10-29T01:02:49.035Z,16.24
2022-10-29T01:05:19.107Z,16.22
2022-10-29T01:07:46.242Z,16.21
2022-10-29T01:10:13.881Z,16.20
2022-10-29T01:12:53.598Z,16.21
2022-10-29T01:15:21.926Z,16.23
2022-10-29T01:17:59.529Z,16.22
2022-10-29T01:20:41.125Z,16.21
2022-10-29T01:23:18.134Z,16.22
2022-10-29T01:26:00.450Z,16.21
2022-10-29T01:28:40.073Z,16.21
2022-10-29T01:31:06.941Z,16.20
2022-10-29T01:33:36.378Z,16.20
2022-10-29T01:36:08.426Z,16.20
2022-10-29T01:38:49.881Z,16.20
2022-10-29T01:41:23.633Z,16.22
2022-10-29T01:43:55.706Z,16.23
2022-10-29T01:46:32.197Z,16.23
2022-10-29T01:49:03.198Z,16.23
2022-10-29T01:51:33.155Z,16.24
2022-10-29T01:54:01.642Z,16.22
2022-10-29T01:56:29.323Z,16.23
2022-10-29T01:58:58.472Z,16.24
2022-10-29T02:01:26.741Z,16.22
2022-10-29T02:04:02.726Z,16.20
2022-10-29T02:06:30.762Z,16.16
2022-10-29T02:09:06.701Z,16.15
2022-10-29T02:11:38.256Z,16.13
2022-10-29T02:14:08.977Z,16.14
2022-10-29T02:16:36.251Z,16.17
2022-10-29T02:19:07.080Z,16.15
2022-10-29T02:21:36.092Z,16.14
2022-10-29T02:24:02.902Z,16.13
2022-10-29T02:26:30.768Z,16.13
2022-10-29T02:28:57.587Z,16.14
2022-10-29T02:31:28.145Z,16.13
2022-10-29T02:33:55.601Z,16.12
2022-10-29T02:36:36.491Z,16.10
2022-10-29T02:39:04.322Z,16.08
2022-10-29T02:41:31.921Z,16.08
2022-10-29T02:44:30.700Z,16.08
2022-10-29T02:47:03.073Z,16.10
2022-10-29T02:49:33.190Z,16.11
2022-10-29T02:52:00.218Z,16.11
2022-10-29T02:54:27.076Z,16.11
2022-10-29T02:56:55.766Z,16.11
2022-10-29T02:59:22.836Z,16.09
2022-10-29T03:01:49.935Z,16.11
2022-10-29T03:04:17.571Z,16.13
2022-10-29T03:06:44.330Z,16.12
2022-10-29T03:09:14.293Z,16.13
2022-10-29T03:11:43.811Z,16.13
2022-10-29T03:14:10.807Z,16.14
2022-10-29T03:16:37.511Z,16.15
2022-10-29T03:19:04.577Z,16.18
2022-10-29T03:21:31.386Z,16.20
2022-10-29T03:23:59.216Z,16.21
2022-10-29T03:26:25.966Z,16.20
2022-10-29T03:28:52.671Z,16.21
2022-10-29T03:31:19.427Z,16.22
2022-10-29T03:33:46.441Z,16.25
2022-10-29T03:36:13.249Z,16.27
2022-10-29T03:38:39.972Z,16.30
2022-10-29T03:41:10.842Z,16.30
2022-10-29T03:43:38.467Z,16.28
2022-10-29T03:46:05.978Z,16.28
2022-10-29T03:48:34.720Z,16.26
2022-10-29T03:51:02.757Z,16.26
2022-10-29T03:53:29.822Z,16.26
2022-10-29T03:55:57.616Z,16.26
2022-10-29T03:58:24.671Z,16.26
2022-10-29T04:01:00.628Z,16.27
2022-10-29T04:03:28.196Z,16.29
2022-10-29T04:05:55.251Z,16.30
2022-10-29T04:08:21.986Z,16.34
2022-10-29T04:10:49.509Z,16.36
2022-10-29T04:13:16.828Z,16.38
2022-10-29T04:15:43.826Z,16.37
2022-10-29T04:18:10.941Z,16.36
2022-10-29T04:21:18.592Z,16.36
2022-10-29T04:28:58.787Z,16.42
2022-10-29T04:31:25.906Z,16.43
2022-10-29T04:33:53.183Z,16.40
2022-10-29T04:36:19.880Z,16.40
2022-10-29T04:38:46.745Z,16.41
2022-10-29T04:41:13.689Z,16.42
2022-10-29T04:43:40.348Z,16.43
2022-10-29T04:46:07.700Z,16.43
2022-10-29T04:48:34.655Z,16.44
2022-10-29T04:51:11.627Z,16.44
2022-10-29T04:53:42.818Z,16.44
2022-10-29T04:56:09.617Z,16.44
2022-10-29T04:58:36.944Z,16.44
2022-10-29T05:01:05.513Z,16.45
2022-10-29T05:03:34.136Z,16.43
2022-10-29T05:06:04.938Z,16.44
2022-10-29T05:08:32.326Z,16.46
2022-10-29T05:11:04.486Z,16.46
2022-10-29T05:13:31.475Z,16.49
2022-10-29T05:15:58.687Z,16.51
2022-10-29T05:18:25.637Z,16.52
2022-10-29T05:20:56.735Z,16.52
2022-10-29T05:23:24.006Z,16.50
2022-10-29T05:25:52.940Z,16.47
2022-10-29T05:28:21.670Z,16.46
2022-10-29T05:30:49.443Z,16.47
2022-10-29T05:33:17.796Z,16.47
2022-10-29T05:35:45.119Z,16.46
2022-10-29T05:38:12.850Z,16.45
2022-10-29T05:40:41.146Z,16.48
2022-10-29T05:43:07.841Z,16.47
2022-10-29T05:45:38.928Z,16.48
2022-10-29T05:48:06.973Z,16.51
2022-10-29T05:50:34.460Z,16.50
2022-10-29T05:53:04.197Z,16.52
2022-10-29T05:55:32.087Z,16.52
2022-10-29T05:58:00.132Z,16.52
2022-10-29T06:00:28.268Z,16.53
2022-10-29T06:02:55.776Z,16.54
2022-10-29T06:05:23.354Z,16.54
2022-10-29T06:07:54.085Z,16.55
2022-10-29T06:10:20.944Z,16.55
2022-10-29T06:12:49.410Z,16.53
2022-10-29T06:15:16.390Z,16.53
2022-10-29T06:17:43.382Z,16.51
2022-10-29T06:20:11.149Z,16.50
2022-10-29T06:22:38.092Z,16.48
2022-10-29T06:25:05.333Z,16.48
2022-10-29T06:27:32.164Z,16.46
2022-10-29T06:29:59.000Z,16.50
2022-10-29T06:32:25.843Z,16.50
2022-10-29T06:34:52.663Z,16.51
2022-10-29T06:37:19.575Z,16.50
2022-10-29T06:39:47.294Z,16.51
2022-10-29T06:42:13.994Z,16.50
2022-10-29T06:44:41.055Z,16.50
2022-10-29T06:47:07.836Z,16.49
2022-10-29T06:49:34.676Z,16.49
2022-10-29T06:52:01.492Z,16.51
2022-10-29T06:54:29.934Z,16.53
2022-10-29T06:56:57.332Z,16.55
2022-10-29T06:59:26.423Z,16.54
2022-10-29T07:01:53.752Z,16.53
2022-10-29T07:04:21.433Z,16.54
2022-10-29T07:06:48.533Z,16.56
2022-10-29T07:09:15.450Z,16.57
2022-10-29T07:11:42.544Z,16.58
2022-10-29T07:14:10.169Z,16.58
2022-10-29T07:16:37.452Z,16.57
2022-10-29T07:19:05.382Z,16.59
2022-10-29T07:21:32.191Z,16.59
2022-10-29T07:23:59.096Z,16.61
2022-10-29T07:26:26.025Z,16.63
2022-10-29T07:28:57.133Z,16.65
2022-10-29T07:31:23.951Z,16.67
2022-10-29T07:33:50.804Z,16.69
2022-10-29T07:36:17.801Z,16.72
2022-10-29T07:38:44.594Z,16.74
2022-10-29T07:41:11.514Z,16.77
2022-10-29T07:43:38.540Z,16.81
2022-10-29T07:46:05.403Z,16.86
2022-10-29T07:48:32.774Z,16.87
2022-10-29T07:51:00.375Z,16.89
2022-10-29T07:53:27.372Z,16.92
2022-10-29T07:55:54.794Z,16.95
2022-10-29T07:58:22.063Z,16.98
2022-10-29T08:00:51.416Z,17.00
2022-10-29T08:03:18.201Z,17.03
2022-10-29T08:05:46.196Z,17.06
2022-10-29T08:08:12.894Z,17.07
2022-10-29T08:10:39.693Z,17.09
2022-10-29T08:13:07.462Z,17.13
2022-10-29T08:15:35.467Z,17.16
2022-10-29T08:18:03.934Z,17.17
2022-10-29T08:20:30.724Z,17.18
2022-10-29T08:23:00.026Z,17.20
2022-10-29T08:25:27.766Z,17.22
2022-10-29T08:28:04.077Z,17.25
2022-10-29T08:30:31.663Z,17.28
2022-10-29T08:32:59.045Z,17.33
2022-10-29T08:35:26.282Z,17.36
2022-10-29T08:37:53.054Z,17.38
2022-10-29T08:40:29.610Z,17.39
2022-10-29T08:43:14.353Z,17.39
2022-10-29T08:45:49.698Z,17.41
2022-10-29T08:48:27.211Z,17.45
2022-10-29T08:51:00.126Z,17.49
2022-10-29T08:53:33.892Z,17.51
2022-10-29T08:56:00.736Z,17.54
2022-10-29T08:58:28.063Z,17.56
2022-10-29T09:00:57.556Z,17.60
2022-10-29T09:03:26.373Z,17.62
2022-10-29T09:06:03.262Z,17.65
2022-10-29T09:08:45.085Z,17.68
2022-10-29T09:11:24.263Z,17.73
2022-10-29T09:14:01.063Z,17.75
2022-10-29T09:16:43.539Z,17.78
2022-10-29T09:19:11.292Z,17.82
2022-10-29T09:21:38.375Z,17.87
2022-10-29T09:24:09.571Z,17.89
2022-10-29T09:26:37.644Z,17.94
2022-10-29T09:29:13.876Z,17.98
2022-10-29T09:31:44.262Z,18.02
2022-10-29T09:34:14.180Z,18.05
2022-10-29T09:36:41.218Z,18.09
2022-10-29T09:39:12.825Z,18.12
2022-10-29T09:41:40.084Z,18.17
2022-10-29T09:44:16.692Z,18.22
2022-10-29T09:46:50.372Z,18.26
2022-10-29T09:49:29.085Z,18.31
2022-10-29T09:52:02.665Z,18.35
2022-10-29T09:54:30.386Z,18.41
2022-10-29T09:56:57.784Z,18.47
2022-10-29T09:59:33.874Z,18.51
2022-10-29T10:02:00.902Z,18.55
2022-10-29T10:04:30.677Z,18.61
2022-10-29T10:07:06.779Z,18.66
2022-10-29T10:09:43.882Z,18.73
2022-10-29T10:12:12.061Z,18.78
2022-10-29T10:14:39.240Z,18.85
2022-10-29T10:17:10.617Z,18.91
2022-10-29T10:19:43.245Z,18.94
2022-10-29T10:22:18.692Z,19.00
2022-10-29T10:24:45.598Z,19.04
2022-10-29T10:27:22.193Z,19.12
2022-10-29T10:30:07.267Z,19.17
2022-10-29T10:32:34.104Z,19.22
2022-10-29T10:35:01.047Z,19.31
2022-10-29T10:37:31.790Z,19.38
2022-10-29T10:40:01.824Z,19.46
2022-10-29T10:42:39.653Z,19.53
2022-10-29T10:45:23.449Z,19.59
2022-10-29T10:47:52.636Z,19.67
2022-10-29T10:50:21.544Z,19.74
2022-10-29T10:52:49.073Z,19.79
2022-10-29T10:55:26.018Z,19.86
2022-10-29T10:58:00.168Z,19.90
2022-10-29T11:00:31.198Z,19.96
2022-10-29T11:03:02.418Z,20.02
2022-10-29T11:05:32.665Z,20.06
2022-10-29T11:08:05.707Z,20.11
2022-10-29T11:10:36.612Z,20.15
2022-10-29T11:13:07.320Z,20.18
2022-10-29T11:15:54.184Z,20.21
2022-10-29T11:18:31.552Z,20.26
2022-10-29T11:21:08.299Z,20.28
2022-10-29T11:23:42.147Z,20.31
2022-10-29T11:26:20.750Z,20.34
2022-10-29T11:28:55.043Z,20.37
2022-10-29T11:31:28.562Z,20.40
2022-10-29T11:34:00.444Z,20.44
2022-10-29T11:36:30.518Z,20.48
2022-10-29T11:39:08.120Z,20.52
2022-10-29T11:41:49.065Z,20.57
2022-10-29T11:44:18.318Z,20.62
2022-10-29T11:46:55.434Z,20.63
2022-10-29T11:49:32.849Z,20.67
2022-10-29T11:52:03.792Z,20.67
2022-10-29T11:54:31.505Z,20.69
2022-10-29T11:57:02.992Z,20.70
2022-10-29T11:59:33.230Z,20.72
2022-10-29T12:02:03.371Z,20.74
2022-10-29T12:04:33.155Z,20.75
2022-10-29T12:07:05.067Z,20.77
2022-10-29T12:09:39.868Z,20.80
2022-10-29T12:12:10.084Z,20.81
2022-10-29T12:14:40.150Z,20.88
2022-10-29T12:17:10.239Z,20.90
2022-10-29T12:19:45.247Z,20.93
2022-10-29T12:22:17.603Z,20.95
2022-10-29T12:24:45.922Z,20.99
2022-10-29T12:27:17.306Z,21.02
2022-10-29T12:29:48.845Z,21.04
2022-10-29T12:32:18.824Z,21.06
2022-10-29T12:34:50.346Z,21.07
2022-10-29T12:37:20.333Z,21.08
2022-10-29T12:39:50.885Z,21.12
2022-10-29T12:42:20.938Z,21.13
2022-10-29T12:44:51.935Z,21.14
2022-10-29T12:47:24.408Z,21.16
2022-10-29T12:49:54.407Z,21.21
2022-10-29T12:52:29.109Z,21.23
2022-10-29T12:54:56.631Z,21.25
2022-10-29T12:57:23.931Z,21.31
2022-10-29T12:59:50.887Z,21.35
2022-10-29T13:02:19.538Z,21.38
2022-10-29T13:04:49.694Z,21.42
2022-10-29T13:09:48.672Z,21.46
2022-10-29T13:12:35.487Z,21.46
2022-10-29T13:15:06.005Z,21.44
2022-10-29T13:17:35.607Z,21.44
2022-10-29T13:20:05.777Z,21.49
2022-10-29T13:22:35.917Z,21.49
2022-10-29T13:25:05.987Z,21.48
2022-10-29T13:27:34.821Z,21.48
2022-10-29T13:30:04.816Z,21.52
2022-10-29T13:32:34.144Z,21.55
2022-10-29T13:35:02.545Z,21.57
2022-10-29T13:37:32.568Z,21.60
2022-10-29T13:40:02.701Z,21.62
2022-10-29T13:42:29.966Z,21.62
2022-10-29T13:44:57.051Z,21.61
2022-10-29T13:47:24.118Z,21.60
2022-10-29T13:49:51.429Z,21.57
2022-10-29T13:52:19.549Z,21.54
2022-10-29T13:54:47.786Z,21.53
2022-10-29T13:57:15.025Z,21.53
2022-10-29T13:59:46.150Z,21.52
2022-10-29T14:02:18.174Z,21.55
2022-10-29T14:04:49.682Z,21.56
2022-10-29T14:07:20.420Z,21.57
2022-10-29T14:09:51.514Z,21.58
2022-10-29T14:12:21.389Z,21.60
2022-10-29T14:14:54.627Z,21.62
2022-10-29T14:17:21.605Z,21.64
2022-10-29T14:19:49.832Z,21.64
2022-10-29T14:22:18.126Z,21.65
2022-10-29T14:24:45.486Z,21.63
2022-10-29T14:27:14.364Z,21.63
2022-10-29T14:29:41.767Z,21.63
2022-10-29T14:32:09.284Z,21.64
2022-10-29T14:34:36.310Z,21.64
2022-10-29T14:37:05.749Z,21.64
2022-10-29T14:39:48.531Z,21.65
2022-10-29T14:42:25.965Z,21.65
2022-10-29T14:44:55.310Z,21.66
2022-10-29T14:47:28.985Z,21.68
2022-10-29T14:50:02.999Z,21.69
2022-10-29T14:52:31.559Z,21.66
2022-10-29T14:55:00.438Z,21.62
2022-10-29T14:57:29.974Z,21.60
2022-10-29T14:59:58.812Z,21.58
2022-10-29T15:02:38.099Z,21.57
2022-10-29T15:05:09.107Z,21.56
2022-10-29T15:07:36.473Z,21.56
2022-10-29T15:10:06.527Z,21.55
2022-10-29T15:12:35.564Z,21.54
2022-10-29T15:15:05.515Z,21.53
2022-10-29T15:17:32.751Z,21.51
2022-10-29T15:20:01.720Z,21.48
2022-10-29T15:22:32.707Z,21.44
2022-10-29T15:25:01.004Z,21.39
2022-10-29T15:27:28.165Z,21.37
2022-10-29T15:29:55.915Z,21.32
2022-10-29T15:32:25.079Z,21.30
2022-10-29T15:34:56.246Z,21.26
2022-10-29T15:37:26.372Z,21.23
2022-10-29T15:39:57.558Z,21.21
2022-10-29T15:42:26.797Z,21.17
2022-10-29T15:44:57.160Z,21.14
2022-10-29T15:47:27.152Z,21.10
2022-10-29T15:49:54.067Z,21.06
2022-10-29T15:52:22.088Z,21.03
2022-10-29T15:54:49.183Z,21.01
2022-10-29T15:57:16.902Z,21.01
2022-10-29T15:59:44.211Z,20.98
2022-10-29T16:02:13.936Z,20.95
2022-10-29T16:04:40.926Z,20.92
2022-10-29T16:07:11.954Z,20.91
2022-10-29T16:09:40.923Z,20.88
2022-10-29T16:12:09.722Z,20.86
2022-10-29T16:14:37.032Z,20.83
2022-10-29T16:17:04.885Z,20.79
2022-10-29T16:19:31.756Z,20.76
2022-10-29T16:22:00.723Z,20.74
2022-10-29T16:24:28.447Z,20.70
2022-10-29T16:26:56.186Z,20.66
2022-10-29T16:29:23.122Z,20.63
2022-10-29T16:31:50.129Z,20.62
2022-10-29T16:34:19.390Z,20.61
2022-10-29T16:36:49.169Z,20.58
2022-10-29T16:39:16.268Z,20.55
2022-10-29T16:41:43.247Z,20.52
2022-10-29T16:44:10.178Z,20.48
2022-10-29T16:46:37.109Z,20.46
2022-10-29T16:49:04.174Z,20.45
2022-10-29T16:51:31.344Z,20.42
2022-10-29T16:53:58.291Z,20.40
2022-10-29T16:56:25.311Z,20.37
2022-10-29T16:58:52.244Z,20.36
2022-10-29T17:01:19.437Z,20.36
2022-10-29T17:03:51.118Z,20.34
2022-10-29T17:06:18.139Z,20.31
2022-10-29T17:08:45.134Z,20.26
2022-10-29T17:11:12.067Z,20.23
2022-10-29T17:13:39.164Z,20.20
2022-10-29T17:16:07.444Z,20.21
2022-10-29T17:18:34.387Z,20.19
2022-10-29T17:21:01.868Z,20.17
2022-10-29T17:23:29.217Z,20.16
2022-10-29T17:25:56.847Z,20.12
2022-10-29T17:28:24.517Z,20.12
2022-10-29T17:30:51.446Z,20.11
2022-10-29T17:33:18.666Z,20.10
2022-10-29T17:35:45.737Z,20.10
2022-10-29T17:38:12.699Z,20.08
2022-10-29T17:40:41.936Z,20.06
2022-10-29T17:43:08.791Z,20.05
2022-10-29T17:45:37.372Z,20.05
2022-10-29T17:48:04.474Z,20.05
2022-10-29T17:50:31.568Z,20.05
2022-10-29T17:52:58.625Z,20.05
2022-10-29T17:55:25.535Z,20.04
2022-10-29T17:57:52.473Z,20.03
2022-10-29T18:00:19.683Z,20.02
2022-10-29T18:02:49.103Z,19.99
2022-10-29T18:05:16.130Z,20.00
2022-10-29T18:07:43.142Z,20.00
2022-10-29T18:10:10.190Z,20.00
2022-10-29T18:12:37.131Z,19.99
2022-10-29T18:15:04.366Z,19.98
2022-10-29T18:17:31.871Z,19.94
2022-10-29T18:19:58.965Z,19.94
2022-10-29T18:22:25.974Z,19.94
2022-10-29T18:24:52.890Z,19.95
2022-10-29T18:27:20.566Z,19.96
2022-10-29T18:29:49.025Z,19.94
2022-10-29T18:32:16.036Z,19.94
2022-10-29T18:34:43.173Z,19.92
2022-10-29T18:37:10.085Z,19.91
2022-10-29T18:39:37.013Z,19.91
2022-10-29T18:42:04.224Z,19.92
2022-10-29T18:44:31.188Z,19.93
2022-10-29T18:46:58.154Z,19.92
2022-10-29T18:49:25.054Z,19.90
2022-10-29T18:51:55.204Z,19.87
2022-10-29T18:54:22.347Z,19.85
2022-10-29T18:56:49.357Z,19.86
2022-10-29T18:59:16.371Z,19.84
2022-10-29T19:01:43.675Z,19.85
2022-10-29T19:04:13.798Z,19.83
2022-10-29T19:06:41.047Z,19.83
2022-10-29T19:09:08.842Z,19.85
2022-10-29T19:11:36.382Z,19.82
2022-10-29T19:14:04.897Z,19.83
2022-10-29T19:16:32.215Z,19.84
2022-10-29T19:19:00.478Z,19.85
2022-10-29T19:21:27.560Z,19.83
2022-10-29T19:23:55.411Z,19.82
2022-10-29T19:26:22.505Z,19.81
2022-10-29T19:28:49.427Z,19.81
2022-10-29T19:31:17.614Z,19.80
2022-10-29T19:33:48.011Z,19.81
2022-10-29T19:36:14.900Z,19.81
2022-10-29T19:38:42.189Z,19.81
2022-10-29T19:41:09.024Z,19.80
2022-10-29T19:43:35.937Z,19.78
2022-10-29T19:46:06.524Z,19.76
2022-10-29T19:48:33.515Z,19.74
2022-10-29T19:51:00.525Z,19.75
2022-10-29T19:53:27.864Z,19.76
2022-10-29T19:55:54.904Z,19.74
2022-10-29T19:58:22.717Z,19.73
2022-10-29T20:00:49.772Z,19.70
2022-10-29T20:03:17.515Z,19.69
2022-10-29T20:05:44.997Z,19.69
2022-10-29T20:08:15.782Z,19.70
2022-10-29T20:10:43.658Z,19.70
2022-10-29T20:13:10.847Z,19.70
2022-10-29T20:15:39.340Z,19.67
2022-10-29T20:18:06.242Z,19.65
2022-10-29T20:20:33.226Z,19.61
2022-10-29T20:23:00.788Z,19.60
2022-10-29T20:25:28.107Z,19.62
2022-10-29T20:27:55.100Z,19.62
2022-10-29T20:30:22.206Z,19.64
2022-10-29T20:32:50.039Z,19.64
2022-10-29T20:35:17.520Z,19.67
2022-10-29T20:37:44.394Z,19.65
2022-10-29T20:40:11.895Z,19.63
2022-10-29T20:42:38.858Z,19.61
2022-10-29T20:45:06.404Z,19.59
2022-10-29T20:47:33.309Z,19.59
2022-10-29T20:50:00.118Z,19.58
2022-10-29T20:52:27.759Z,19.59
2022-10-29T20:54:54.670Z,19.54
2022-10-29T20:57:21.626Z,19.52
2022-10-29T20:59:48.519Z,19.53
2022-10-29T21:02:15.558Z,19.52
2022-10-29T21:04:42.725Z,19.53
2022-10-29T21:07:09.584Z,19.51
2022-10-29T21:09:36.422Z,19.50
2022-10-29T21:12:03.365Z,19.49
2022-10-29T21:14:30.268Z,19.47
2022-10-29T21:16:57.144Z,19.49
2022-10-29T21:19:25.244Z,19.48
2022-10-29T21:21:52.223Z,19.46
2022-10-29T21:24:20.515Z,19.46
2022-10-29T21:26:47.560Z,19.46
2022-10-29T21:29:14.473Z,19.48
2022-10-29T21:31:41.416Z,19.45
2022-10-29T21:34:08.280Z,19.44
2022-10-29T21:36:35.208Z,19.44
2022-10-29T21:39:02.695Z,19.45
2022-10-29T21:41:29.614Z,19.44
2022-10-29T21:43:56.472Z,19.45
2022-10-29T21:46:23.266Z,19.42
2022-10-29T21:48:50.126Z,19.37
2022-10-29T21:51:17.566Z,19.36
2022-10-29T21:53:44.456Z,19.35
2022-10-29T21:56:12.855Z,19.29
2022-10-29T21:58:39.926Z,19.27
2022-10-29T22:01:09.845Z,19.25
2022-10-29T22:03:37.712Z,19.27
2022-10-29T22:06:05.442Z,19.21
2022-10-29T22:08:32.546Z,19.21
2022-10-29T22:10:59.793Z,19.22
2022-10-29T22:13:28.886Z,19.19
2022-10-29T22:15:55.984Z,19.18
2022-10-29T22:18:22.920Z,19.21
2022-10-29T22:20:50.122Z,19.21
2022-10-29T22:25:49.410Z,19.17
2022-10-29T22:28:16.264Z,19.16
2022-10-29T22:30:43.123Z,19.13
2022-10-29T22:33:10.024Z,19.11
2022-10-29T22:35:36.917Z,19.11
2022-10-29T22:38:03.795Z,19.11
2022-10-29T22:40:30.722Z,19.10
2022-10-29T22:42:57.712Z,19.06
2022-10-29T22:45:24.787Z,19.03
2022-10-29T22:47:51.586Z,19.02
2022-10-29T22:50:18.475Z,19.04
2022-10-29T22:52:45.298Z,19.04
2022-10-29T22:55:12.099Z,19.02
2022-10-29T22:57:38.951Z,18.98
2022-10-29T23:00:06.393Z,18.98
2022-10-29T23:02:33.298Z,18.97
2022-10-29T23:05:00.223Z,18.94
2022-10-29T23:07:27.113Z,18.91
2022-10-29T23:09:53.957Z,18.86
2022-10-29T23:12:20.872Z,18.85
2022-10-29T23:14:47.708Z,18.86
2022-10-29T23:19:43.139Z,18.84
2022-10-29T23:22:10.030Z,18.80
2022-10-29T23:24:37.047Z,18.79
2022-10-29T23:27:03.884Z,18.76
2022-10-29T23:29:30.724Z,18.70
2022-10-29T23:31:57.556Z,18.66
2022-10-29T23:34:24.425Z,18.64
2022-10-29T23:39:18.025Z,18.65
2022-10-29T23:41:44.855Z,18.63
2022-10-29T23:44:11.742Z,18.62
2022-10-29T23:46:38.724Z,18.61
2022-10-29T23:49:05.619Z,18.58
2022-10-29T23:51:32.437Z,18.57
2022-10-29T23:53:59.876Z,18.56
2022-10-29T23:56:31.546Z,18.52
2022-10-29T23:58:58.498Z,18.48
